Deep Water, West Virginia
Current Conditions -  °F | °C
As of 7:51 AM on Thursday 23 Oct 2014 (Local Time) from KBKW Reporting Station
Overcast Overcast  
Wind Chill: 36°   Ceiling: 800
Heat Index: 42°   Visibility: 10mi
Dew Point: 39°   Wind: 10mph
Humidity: 89%   Direction: 330°NNW
Pressure: 30.15"   Gusts: NA
Location:  38.12°N, 81.26°W
Report Text: KBKW 231151Z AUTO 33009KT 10SM BKN008 OVC015 06/04 A3015 RMK AO2 SLP220 70005 T00560039 10056 20056 50001 TSNO
Loading
Personal Weather Stations






























Interactive Weather Map
Tropical Storm Tracking
New forecast layout! Learn more

10-Day Weather Forecast

Advertisements
Track Severe Weather on mobile